AirNav   Pilot Hours Calculator
 
 459 users online  

PS26 Banning Heliport
Natrona Heights, Pennsylvania, USA

GOING TO NATRONA HEIGHTS?


FAA INFORMATION EFFECTIVE 07 NOVEMBER 2019

Location

FAA Identifier: PS26
Lat/Long: 40-38-05.2380N 079-44-39.1750W
40-38.087300N 079-44.652917W
40.6347883,-79.7442153
(estimated)
Elevation: 1200 ft. / 366 m (estimated)
Variation: 08W (1985)
From city: 1 mile SE of NATRONA HEIGHTS, PA
Time zone: UTC -5 (UTC -4 during Daylight Saving Time)
Zip code: 15065

Heliport Operations

Heliport use: Private use. Permission required prior to landing
Activation date: 11/1983
Control tower: no
ARTCC: CLEVELAND CENTER
FSS: ALTOONA FLIGHT SERVICE STATION
Attendance: UNATNDD
Wind indicator: yes
Segmented circle: yes

Heliport Communications

WX AWOS-3PT at BTP (13 nm NW): 121.450 (724-586-6434)
WX AWOS-A at 42PN (16 nm SW): PHONE 412-442-2213
WX ASOS at AGC (19 nm SW): PHONE 412-466-8968

Nearby radio navigation aids

VOR radial/distance  VOR name  Freq  Var
EWCr126/24.1ELLWOOD CITY VOR/DME115.8008W
AGCr041/25.3ALLEGHENY VOR/DME110.0009W
CIPr209/33.3CLARION VOR/DME112.9006W

 
NDB name  Hdg/Dist  Freq  Var  ID
CASTLE136/38.427209WUCP ..- -.-. .--.

Heliport Services

Runway Information

Helipad H1

Dimensions: 60 x 60 ft. / 18 x 18 m
Surface: turf, in fair condition
Latitude: 40-38.087300N
Longitude: 079-44.652917W
Elevation: 1200.0 ft.
Traffic pattern: leftleft
Markings: none, in fair condition

Heliport Ownership and Management from official FAA records

Ownership: Privately-owned
Owner: BRUCE BANNING
RD 1, BOX 464 RIDGE ROAD
NATRONA HEIGHTS, PA 15065
Phone 412-226-0818
Manager: BRUCE BANNING
RD 1, BOX 464 RIDGE ROAD
NATRONA HEIGHTS, PA 15065
Phone 412-226-0818

Additional Remarks

FOR CD CTC PITTSBURGH APCH AT 412-472-5591

Instrument Procedures

There are no published instrument procedures at PS26.

Some nearby airports with instrument procedures:

6P7 - McVille Airport (9 nm NE)
KBTP - Pittsburgh/Butler Regional Airport (13 nm NW)
KAGC - Allegheny County Airport (19 nm SW)
KPJC - Zelienople Municipal Airport (21 nm NW)
KPIT - Pittsburgh International Airport (24 nm W)
 
Loc | Ops | Rwys | IFR | FBO | Links
Com | Nav | Svcs | Stats | Notes
Area around PS26 (Banning Heliport)
 
Road maps at: MapQuest Bing Google
 
Aerial photo
No photo
 
Sectional chart

 
Airport distance calculator
Flying to Banning Heliport? Find the distance to fly.

From to PS26

Sunrise and sunset
Times for 19-Nov-2019
 Local
(UTC-5)
 Zulu
(UTC)
Morning civil twilight06:4211:42
Sunrise07:1112:11
Sunset16:5821:58
Evening civil twilight17:2722:27

Current date and time
Zulu (UTC)  19-Nov-2019 09:05:06
Local (UTC-5)  19-Nov-2019 04:05:06
 
METAR
KBTP 
12nm NW 
190856Z AUTO 00000KT 6SM BR CLR M03/M03 A2974 RMK AO2 SLP086 T10281028 53004 FZRANO
KAGC 
19nm SW 
190853Z 23005KT 6SM HZ CLR 01/M02 A2973 RMK AO2 SLP079 T00111017 51005
KPJC 
21nm NW 
190855Z AUTO 00000KT 10SM CLR M04/M04 A2975 RMK AO2
TAF
KAGC 
19nm SW 
190536Z 1906/2006 VRB03KT P6SM BKN250 FM191400 23003KT P6SM BKN015 FM191700 00000KT P6SM OVC025 FM200000 VRB03KT P6SM OVC015
NOTAMs
Click for the latest NOTAMs
NOTAMs are issued by the DoD/FAA and will open in a separate window not controlled by AirNav.

 

 
 

Would you like to see your business listed on this page?

 If your business provides an interesting product or service to pilots, flight crews, aircraft, or users of the Banning Heliport, you should consider listing it here.  To start the listing process, click on the button below
 
Add a business
 

Other Pages about Banning Heliport

Update a link
 
Copyright © AirNav, LLC. All rights reserved. Privacy Policy  Contact